createdAt,value
2023-04-09T00:03:34.358Z,67.30
2023-04-09T00:06:01.689Z,65.28
2023-04-09T00:08:28.555Z,64.46
2023-04-09T00:10:55.692Z,64.20
2023-04-09T00:13:31.960Z,63.31
2023-04-09T00:16:05.780Z,63.42
2023-04-09T00:18:34.013Z,63.46
2023-04-09T00:21:00.848Z,63.59
2023-04-09T00:23:27.526Z,63.24
2023-04-09T00:25:54.275Z,63.21
2023-04-09T00:28:21.073Z,63.08
2023-04-09T00:30:48.029Z,63.07
2023-04-09T00:33:14.974Z,62.33
2023-04-09T00:35:42.044Z,62.58
2023-04-09T00:38:09.062Z,63.13
2023-04-09T00:40:36.030Z,62.51
2023-04-09T00:43:03.011Z,61.91
2023-04-09T00:45:30.044Z,61.90
2023-04-09T00:47:56.903Z,62.32
2023-04-09T00:50:24.362Z,62.50
2023-04-09T00:52:52.003Z,64.03
2023-04-09T00:55:19.229Z,65.62
2023-04-09T00:57:47.100Z,63.74
2023-04-09T01:00:14.502Z,64.48
2023-04-09T01:02:42.173Z,66.32
2023-04-09T01:05:10.081Z,68.73
2023-04-09T01:07:39.895Z,67.64
2023-04-09T01:10:26.959Z,68.09
2023-04-09T01:13:18.882Z,69.25
2023-04-09T01:15:57.293Z,69.90
2023-04-09T01:18:40.372Z,69.00
2023-04-09T01:21:12.178Z,69.60
2023-04-09T01:24:04.616Z,67.87
2023-04-09T01:26:48.440Z,68.75
2023-04-09T01:29:18.458Z,67.31
2023-04-09T01:31:46.907Z,67.84
2023-04-09T01:34:15.123Z,66.05
2023-04-09T01:36:47.831Z,65.12
2023-04-09T01:39:14.956Z,65.71
2023-04-09T01:41:42.663Z,68.29
2023-04-09T01:44:12.615Z,69.08
2023-04-09T01:46:40.690Z,67.69
2023-04-09T01:49:07.883Z,68.70
2023-04-09T01:51:38.380Z,68.21
2023-04-09T01:54:05.942Z,68.07
2023-04-09T01:56:43.542Z,68.67
2023-04-09T01:59:11.937Z,70.41
2023-04-09T02:01:58.488Z,68.54
2023-04-09T02:04:37.198Z,64.92
2023-04-09T02:07:29.925Z,67.38
2023-04-09T02:10:01.879Z,68.33
2023-04-09T02:12:31.777Z,68.96
2023-04-09T02:15:01.275Z,68.73
2023-04-09T02:17:28.466Z,65.73
2023-04-09T02:19:55.495Z,66.87
2023-04-09T02:22:23.092Z,67.84
2023-04-09T02:24:50.084Z,67.32
2023-04-09T02:27:18.043Z,67.52
2023-04-09T02:29:45.361Z,67.52
2023-04-09T02:32:13.435Z,67.05
2023-04-09T02:34:40.673Z,65.53
2023-04-09T02:37:07.573Z,64.93
2023-04-09T02:39:34.495Z,64.91
2023-04-09T02:42:02.329Z,66.54
2023-04-09T02:44:29.481Z,66.69
2023-04-09T02:46:57.267Z,66.44
2023-04-09T02:49:24.306Z,68.11
2023-04-09T02:51:51.610Z,65.29
2023-04-09T02:54:18.934Z,67.63
2023-04-09T02:56:45.841Z,69.94
2023-04-09T02:59:12.666Z,69.08
2023-04-09T03:01:39.933Z,68.04
2023-04-09T03:04:07.301Z,68.68
2023-04-09T03:06:39.141Z,68.47
2023-04-09T03:09:06.624Z,67.12
2023-04-09T03:11:37.333Z,66.45
2023-04-09T03:14:05.401Z,67.04
2023-04-09T03:16:32.609Z,67.01
2023-04-09T03:19:02.230Z,64.56
2023-04-09T03:21:35.258Z,65.99
2023-04-09T03:24:02.819Z,67.10
2023-04-09T03:26:36.264Z,67.78
2023-04-09T03:29:06.540Z,67.66
2023-04-09T03:31:34.355Z,69.31
2023-04-09T03:34:01.166Z,68.87
2023-04-09T03:36:34.501Z,67.77
2023-04-09T03:39:03.398Z,67.80
2023-04-09T03:41:39.486Z,67.99
2023-04-09T03:44:11.176Z,67.83
2023-04-09T03:46:52.492Z,67.64
2023-04-09T03:49:19.939Z,67.42
2023-04-09T03:51:46.699Z,67.05
2023-04-09T03:54:13.722Z,67.38
2023-04-09T03:56:41.482Z,67.71
2023-04-09T03:59:11.716Z,66.60
2023-04-09T04:01:41.575Z,65.28
2023-04-09T04:04:09.218Z,64.69
2023-04-09T04:06:41.361Z,64.08
2023-04-09T04:09:26.506Z,63.35
2023-04-09T04:12:02.453Z,63.10
2023-04-09T04:14:47.903Z,62.53
2023-04-09T04:17:35.567Z,63.36
2023-04-09T04:20:06.467Z,64.41
2023-04-09T04:22:39.421Z,65.31
2023-04-09T04:25:07.018Z,67.40
2023-04-09T04:27:34.082Z,67.43
2023-04-09T04:30:02.484Z,65.90
2023-04-09T04:32:40.600Z,66.29
2023-04-09T04:35:11.356Z,64.04
2023-04-09T04:37:40.607Z,64.78
2023-04-09T04:40:13.771Z,65.32
2023-04-09T04:42:42.764Z,67.28
2023-04-09T04:45:14.205Z,68.15
2023-04-09T04:47:46.426Z,68.48
2023-04-09T04:50:15.511Z,69.55
2023-04-09T04:53:02.965Z,70.45
2023-04-09T04:55:42.242Z,71.38
2023-04-09T04:58:15.340Z,71.49
2023-04-09T05:00:47.906Z,71.82
2023-04-09T05:03:15.389Z,68.03
2023-04-09T05:05:59.903Z,69.96
2023-04-09T05:08:32.055Z,70.75
2023-04-09T05:10:59.112Z,66.73
2023-04-09T05:13:36.396Z,65.64
2023-04-09T05:16:07.394Z,66.60
2023-04-09T05:18:37.350Z,66.69
2023-04-09T05:21:04.694Z,66.38
2023-04-09T05:23:34.599Z,67.43
2023-04-09T05:26:01.579Z,67.69
2023-04-09T05:28:59.055Z,65.61
2023-04-09T05:31:26.961Z,64.97
2023-04-09T05:33:59.384Z,65.68
2023-04-09T05:36:37.896Z,67.07
2023-04-09T05:39:05.119Z,68.05
2023-04-09T05:41:34.526Z,69.37
2023-04-09T05:44:37.088Z,68.92
2023-04-09T05:47:10.787Z,68.41
2023-04-09T05:50:01.104Z,68.20
2023-04-09T05:52:28.738Z,67.51
2023-04-09T05:54:56.379Z,66.76
2023-04-09T05:57:31.877Z,66.96
2023-04-09T06:00:02.470Z,67.22
2023-04-09T06:02:31.972Z,69.09
2023-04-09T06:05:00.561Z,68.94
2023-04-09T06:07:27.685Z,68.89
2023-04-09T06:09:56.487Z,66.95
2023-04-09T06:12:23.402Z,66.74
2023-04-09T06:14:50.443Z,67.30
2023-04-09T06:17:17.508Z,67.76
2023-04-09T06:19:44.459Z,68.31
2023-04-09T06:22:11.372Z,67.32
2023-04-09T06:24:39.440Z,68.49
2023-04-09T06:27:08.110Z,67.38
2023-04-09T06:29:35.098Z,66.69
2023-04-09T06:32:02.069Z,65.77
2023-04-09T06:34:28.957Z,65.27
2023-04-09T06:36:56.646Z,66.07
2023-04-09T06:39:23.711Z,64.73
2023-04-09T06:41:50.893Z,64.29
2023-04-09T06:44:34.746Z,64.74
2023-04-09T06:47:02.625Z,66.04
2023-04-09T06:49:29.587Z,66.27
2023-04-09T06:51:56.438Z,66.82
2023-04-09T06:54:23.104Z,66.21
2023-04-09T06:56:49.672Z,66.44
2023-04-09T06:59:16.996Z,65.58
2023-04-09T07:01:44.069Z,64.59
2023-04-09T07:04:16.522Z,63.97
2023-04-09T07:06:44.107Z,64.11
2023-04-09T07:09:13.132Z,64.34
2023-04-09T07:11:40.536Z,64.38
2023-04-09T07:14:07.943Z,63.13
2023-04-09T07:16:35.127Z,63.37
2023-04-09T07:19:03.823Z,64.85
2023-04-09T07:21:32.657Z,63.50
2023-04-09T07:23:59.650Z,64.53
2023-04-09T07:26:29.414Z,63.03
2023-04-09T07:28:56.271Z,64.56
2023-04-09T07:31:23.480Z,62.83
2023-04-09T07:33:54.157Z,62.95
2023-04-09T07:36:21.645Z,62.55
2023-04-09T07:38:48.920Z,62.36
2023-04-09T07:41:16.425Z,62.76
2023-04-09T07:43:44.283Z,61.29
2023-04-09T07:46:11.959Z,63.08
2023-04-09T07:48:40.428Z,63.68
2023-04-09T07:51:08.802Z,62.06
2023-04-09T07:53:35.984Z,61.04
2023-04-09T07:56:03.373Z,60.07
2023-04-09T07:58:31.034Z,59.73
2023-04-09T08:00:59.974Z,59.27
2023-04-09T08:03:27.717Z,58.95
2023-04-09T08:05:54.909Z,61.68
2023-04-09T08:08:22.551Z,61.14
2023-04-09T08:10:49.337Z,62.72
2023-04-09T08:13:16.522Z,63.53
2023-04-09T08:15:43.660Z,62.40
2023-04-09T08:18:10.663Z,62.17
2023-04-09T08:20:38.196Z,61.41
2023-04-09T08:23:05.013Z,60.42
2023-04-09T08:25:32.398Z,58.74
2023-04-09T08:27:59.270Z,57.29
2023-04-09T08:30:26.292Z,58.18
2023-04-09T08:32:54.207Z,58.46
2023-04-09T08:35:21.203Z,57.77
2023-04-09T08:37:49.037Z,57.85
2023-04-09T08:40:15.998Z,55.38
2023-04-09T08:42:48.623Z,55.34
2023-04-09T08:45:15.752Z,55.81
2023-04-09T08:47:45.680Z,56.89
2023-04-09T08:50:14.522Z,56.79
2023-04-09T08:52:42.774Z,55.79
2023-04-09T08:55:12.048Z,56.90
2023-04-09T08:57:40.092Z,53.47
2023-04-09T09:00:09.945Z,53.18
2023-04-09T09:02:39.430Z,52.53
2023-04-09T09:05:09.141Z,53.11
2023-04-09T09:07:39.065Z,52.13
2023-04-09T09:10:07.270Z,51.38
2023-04-09T09:12:42.017Z,53.21
2023-04-09T09:15:28.801Z,52.61
2023-04-09T09:18:00.952Z,51.36
2023-04-09T09:20:28.034Z,51.03
2023-04-09T09:22:57.034Z,50.78
2023-04-09T09:25:25.699Z,52.37
2023-04-09T09:27:54.261Z,49.36
2023-04-09T09:30:22.525Z,50.12
2023-04-09T09:33:07.144Z,49.61
2023-04-09T09:36:09.477Z,48.82
2023-04-09T09:38:55.279Z,50.53
2023-04-09T09:41:23.405Z,49.33
2023-04-09T09:43:50.903Z,49.04
2023-04-09T09:46:17.820Z,49.06
2023-04-09T09:48:47.996Z,48.03
2023-04-09T09:51:15.544Z,48.75
2023-04-09T09:53:46.608Z,49.04
2023-04-09T09:56:18.557Z,48.61
2023-04-09T09:59:04.332Z,47.46
2023-04-09T10:01:31.420Z,47.50
2023-04-09T10:04:01.530Z,48.54
2023-04-09T10:06:30.216Z,47.07
2023-04-09T10:08:58.366Z,46.19
2023-04-09T10:11:25.878Z,47.29
2023-04-09T10:13:59.700Z,46.89
2023-04-09T10:16:28.156Z,46.55
2023-04-09T10:18:59.895Z,46.80
2023-04-09T10:21:47.729Z,45.66
2023-04-09T10:24:16.086Z,45.57
2023-04-09T10:26:45.152Z,45.46
2023-04-09T10:29:14.695Z,45.09
2023-04-09T10:32:06.807Z,44.81
2023-04-09T10:34:42.837Z,45.22
2023-04-09T10:37:15.130Z,46.06
2023-04-09T10:39:44.790Z,46.23
2023-04-09T10:42:25.658Z,46.95
2023-04-09T10:45:16.952Z,47.34
2023-04-09T10:47:44.262Z,44.95
2023-04-09T10:50:33.312Z,46.15
2023-04-09T10:53:00.987Z,45.76
2023-04-09T10:55:38.406Z,45.04
2023-04-09T10:58:13.628Z,44.21
2023-04-09T11:00:46.079Z,44.95
2023-04-09T11:03:31.369Z,45.02
2023-04-09T11:06:06.103Z,44.18
2023-04-09T11:08:34.215Z,45.74
2023-04-09T11:11:02.310Z,45.38
2023-04-09T11:13:31.097Z,44.61
2023-04-09T11:16:00.274Z,43.36
2023-04-09T11:18:30.758Z,45.73
2023-04-09T11:21:02.350Z,46.22
2023-04-09T11:23:29.454Z,45.04
2023-04-09T11:25:56.577Z,45.20
2023-04-09T11:28:24.130Z,44.92
2023-04-09T11:30:52.078Z,46.91
2023-04-09T11:33:20.200Z,45.40
2023-04-09T11:35:48.338Z,45.73
2023-04-09T11:38:15.685Z,44.99
2023-04-09T11:40:48.083Z,44.70
2023-04-09T11:43:16.884Z,45.55
2023-04-09T11:45:44.935Z,47.63
2023-04-09T11:48:13.214Z,47.33
2023-04-09T11:50:40.740Z,47.52
2023-04-09T11:53:21.625Z,47.22
2023-04-09T11:55:51.461Z,47.52
2023-04-09T11:58:18.724Z,47.27
2023-04-09T12:00:45.794Z,47.04
2023-04-09T12:03:13.598Z,46.93
2023-04-09T12:05:50.811Z,47.10
2023-04-09T12:08:23.824Z,48.44
2023-04-09T12:10:53.655Z,47.64
2023-04-09T12:13:21.609Z,49.60
2023-04-09T12:15:50.121Z,50.92
2023-04-09T12:18:16.920Z,49.21
2023-04-09T12:20:46.608Z,50.55
2023-04-09T12:23:13.855Z,50.97
2023-04-09T12:25:42.972Z,52.12
2023-04-09T12:28:13.023Z,51.85
2023-04-09T12:30:40.707Z,51.38
2023-04-09T12:33:10.206Z,52.76
2023-04-09T12:35:39.557Z,52.38
2023-04-09T12:38:07.382Z,53.65
2023-04-09T12:40:35.652Z,52.81
2023-04-09T12:43:03.162Z,51.42
2023-04-09T12:45:30.539Z,51.34
2023-04-09T12:47:58.361Z,50.14
2023-04-09T12:50:26.008Z,51.18
2023-04-09T12:52:54.065Z,50.21
2023-04-09T12:55:22.216Z,52.04
2023-04-09T12:57:50.901Z,50.86
2023-04-09T13:00:18.652Z,48.91
2023-04-09T13:02:45.837Z,47.48
2023-04-09T13:05:13.484Z,49.52
2023-04-09T13:07:43.233Z,49.24
2023-04-09T13:10:11.499Z,50.28
2023-04-09T13:12:38.786Z,48.40
2023-04-09T13:15:06.862Z,48.40
2023-04-09T13:17:33.913Z,47.65
2023-04-09T13:20:01.722Z,47.16
2023-04-09T13:22:28.863Z,48.04
2023-04-09T13:24:55.795Z,47.38
2023-04-09T13:27:23.010Z,46.58
2023-04-09T13:29:50.841Z,46.20
2023-04-09T13:32:19.007Z,47.31
2023-04-09T13:34:46.728Z,47.18
2023-04-09T13:37:14.066Z,46.20
2023-04-09T13:39:41.086Z,46.51
2023-04-09T13:42:13.562Z,45.59
2023-04-09T13:44:44.772Z,45.49
2023-04-09T13:47:13.641Z,46.52
2023-04-09T13:49:43.916Z,46.72
2023-04-09T13:52:11.976Z,45.35
2023-04-09T13:54:38.798Z,46.38
2023-04-09T13:57:08.685Z,47.86
2023-04-09T13:59:36.589Z,47.45
2023-04-09T14:02:04.233Z,46.19
2023-04-09T14:04:31.683Z,46.45
2023-04-09T14:06:58.477Z,45.31
2023-04-09T14:09:25.574Z,46.27
2023-04-09T14:11:54.334Z,46.35
2023-04-09T14:14:21.570Z,46.98
2023-04-09T14:16:48.597Z,46.52
2023-04-09T14:19:15.862Z,47.06
2023-04-09T14:21:42.740Z,46.77
2023-04-09T14:24:09.847Z,48.60
2023-04-09T14:26:37.643Z,47.81
2023-04-09T14:29:04.579Z,47.82
2023-04-09T14:31:31.710Z,47.46
2023-04-09T14:33:58.762Z,47.23
2023-04-09T14:36:27.474Z,47.41
2023-04-09T14:38:56.240Z,47.83
2023-04-09T14:41:24.811Z,46.51
2023-04-09T14:43:51.530Z,48.49
2023-04-09T14:46:18.277Z,47.53
2023-04-09T14:48:45.993Z,48.02
2023-04-09T14:51:13.190Z,48.29
2023-04-09T14:53:40.060Z,47.73
2023-04-09T14:56:07.274Z,49.56
2023-04-09T14:58:34.205Z,48.00
2023-04-09T15:01:01.214Z,48.63
2023-04-09T15:03:28.470Z,47.39
2023-04-09T15:05:55.750Z,46.70
2023-04-09T15:08:23.715Z,47.29
2023-04-09T15:10:51.288Z,47.96
2023-04-09T15:13:18.124Z,47.46
2023-04-09T15:15:45.428Z,47.21
2023-04-09T15:18:13.030Z,48.58
2023-04-09T15:20:41.850Z,49.28
2023-04-09T15:23:09.782Z,48.07
2023-04-09T15:25:37.555Z,48.94
2023-04-09T15:28:06.240Z,49.02
2023-04-09T15:30:33.432Z,48.12
2023-04-09T15:33:01.643Z,49.83
2023-04-09T15:35:29.499Z,48.67
2023-04-09T15:37:57.282Z,48.21
2023-04-09T15:40:24.484Z,48.36
2023-04-09T15:42:51.522Z,48.01
2023-04-09T15:45:18.599Z,49.18
2023-04-09T15:47:46.167Z,49.39
2023-04-09T15:50:22.682Z,49.47
2023-04-09T15:52:50.622Z,49.79
2023-04-09T15:55:17.776Z,48.97
2023-04-09T15:57:47.337Z,48.58
2023-04-09T16:00:15.703Z,48.18
2023-04-09T16:02:47.399Z,49.36
2023-04-09T16:05:15.644Z,48.91
2023-04-09T16:07:42.968Z,48.36
2023-04-09T16:10:11.181Z,48.45
2023-04-09T16:12:38.440Z,48.70
2023-04-09T16:15:06.065Z,48.99
2023-04-09T16:17:40.295Z,48.78
2023-04-09T16:20:08.553Z,49.13
2023-04-09T16:22:45.033Z,50.86
2023-04-09T16:25:12.944Z,51.16
2023-04-09T16:27:40.915Z,50.99
2023-04-09T16:30:08.088Z,50.59
2023-04-09T16:32:35.006Z,50.69
2023-04-09T16:35:02.471Z,52.16
2023-04-09T16:37:31.236Z,50.39
2023-04-09T16:39:58.141Z,50.72
2023-04-09T16:42:27.704Z,50.77
2023-04-09T16:44:54.843Z,49.55
2023-04-09T16:47:22.392Z,48.96
2023-04-09T16:49:49.136Z,49.78
2023-04-09T16:52:16.461Z,49.90
2023-04-09T16:54:43.419Z,49.70
2023-04-09T16:57:10.362Z,49.39
2023-04-09T16:59:37.605Z,50.35
2023-04-09T17:02:04.779Z,50.29
2023-04-09T17:04:34.350Z,50.09
2023-04-09T17:07:01.731Z,51.49
2023-04-09T17:09:28.566Z,51.08
2023-04-09T17:11:56.638Z,50.93
2023-04-09T17:14:23.954Z,51.47
2023-04-09T17:16:53.130Z,50.93
2023-04-09T17:19:20.102Z,52.04
2023-04-09T17:21:47.027Z,51.68
2023-04-09T17:24:13.941Z,51.81
2023-04-09T17:26:40.836Z,52.61
2023-04-09T17:29:07.752Z,52.63
2023-04-09T17:31:34.680Z,52.07
2023-04-09T17:34:02.213Z,52.30
2023-04-09T17:36:29.385Z,52.87
2023-04-09T17:38:56.740Z,52.39
2023-04-09T17:41:24.404Z,52.16
2023-04-09T17:43:51.576Z,53.75
2023-04-09T17:46:18.516Z,54.07
2023-04-09T17:48:45.538Z,53.53
2023-04-09T17:51:19.662Z,53.44
2023-04-09T17:53:47.493Z,52.92
2023-04-09T17:56:16.886Z,52.83
2023-04-09T17:58:44.400Z,54.27
2023-04-09T18:01:13.633Z,56.05
2023-04-09T18:03:42.718Z,56.09
2023-04-09T18:06:10.041Z,56.87
2023-04-09T18:08:37.763Z,56.39
2023-04-09T18:11:12.618Z,56.85
2023-04-09T18:13:40.447Z,56.36
2023-04-09T18:16:12.380Z,56.23
2023-04-09T18:18:39.563Z,57.11
2023-04-09T18:21:07.202Z,56.37
2023-04-09T18:23:34.752Z,56.27
2023-04-09T18:26:03.140Z,56.36
2023-04-09T18:28:30.309Z,55.91
2023-04-09T18:30:57.848Z,56.70
2023-04-09T18:33:25.919Z,55.95
2023-04-09T18:35:53.203Z,56.93
2023-04-09T18:38:21.887Z,56.69
2023-04-09T18:40:48.717Z,56.95
2023-04-09T18:43:15.605Z,56.35
2023-04-09T18:45:42.604Z,56.49
2023-04-09T18:48:10.005Z,56.68
2023-04-09T18:50:37.128Z,56.42
2023-04-09T18:53:06.068Z,56.41
2023-04-09T18:55:37.861Z,55.91
2023-04-09T18:58:08.755Z,55.83
2023-04-09T19:00:36.289Z,55.71
2023-04-09T19:03:03.415Z,55.67
2023-04-09T19:05:31.852Z,55.81
2023-04-09T19:08:03.271Z,55.93
2023-04-09T19:10:30.340Z,55.94
2023-04-09T19:12:57.088Z,56.38
2023-04-09T19:15:26.405Z,56.89
2023-04-09T19:17:53.826Z,59.00
2023-04-09T19:20:22.144Z,59.85
2023-04-09T19:22:50.412Z,60.06
2023-04-09T19:25:18.474Z,60.16
2023-04-09T19:27:45.721Z,59.55
2023-04-09T19:30:13.252Z,59.42
2023-04-09T19:32:41.781Z,60.40
2023-04-09T19:35:08.842Z,60.91
2023-04-09T19:37:36.173Z,60.10
2023-04-09T19:40:04.699Z,60.48
2023-04-09T19:42:35.330Z,60.52
2023-04-09T19:45:02.521Z,60.85
2023-04-09T19:47:29.757Z,61.14
2023-04-09T19:49:56.570Z,60.71
2023-04-09T19:52:23.563Z,60.59
2023-04-09T19:54:54.791Z,60.58
2023-04-09T19:57:22.085Z,60.38
2023-04-09T19:59:49.969Z,59.92
2023-04-09T20:02:17.298Z,59.87
2023-04-09T20:04:48.017Z,59.92
2023-04-09T20:07:15.702Z,61.21
2023-04-09T20:09:43.610Z,60.52
2023-04-09T20:12:10.777Z,60.87
2023-04-09T20:14:40.853Z,60.63
2023-04-09T20:17:09.790Z,60.93
2023-04-09T20:19:37.947Z,60.13
2023-04-09T20:22:05.019Z,60.73
2023-04-09T20:24:32.355Z,60.13
2023-04-09T20:26:59.690Z,60.37
2023-04-09T20:29:26.690Z,61.62
2023-04-09T20:31:53.696Z,60.46
2023-04-09T20:34:26.597Z,60.93
2023-04-09T20:36:54.821Z,60.16
2023-04-09T20:39:22.351Z,60.02
2023-04-09T20:41:49.384Z,60.12
2023-04-09T20:44:16.689Z,59.65
2023-04-09T20:46:43.519Z,59.53
2023-04-09T20:49:11.206Z,60.22
2023-04-09T20:51:38.624Z,59.86
2023-04-09T20:54:05.605Z,60.29
2023-04-09T20:56:32.830Z,60.25
2023-04-09T20:59:00.164Z,61.13
2023-04-09T21:01:27.776Z,60.63
2023-04-09T21:03:55.040Z,60.04
2023-04-09T21:06:22.692Z,60.49
2023-04-09T21:08:49.750Z,59.93
2023-04-09T21:11:16.759Z,59.86
2023-04-09T21:13:53.592Z,59.74
2023-04-09T21:16:21.868Z,59.38
2023-04-09T21:18:49.037Z,60.20
2023-04-09T21:21:16.072Z,61.24
2023-04-09T21:23:43.497Z,61.30
2023-04-09T21:26:11.526Z,61.05
2023-04-09T21:28:39.278Z,61.27
2023-04-09T21:31:06.518Z,61.18
2023-04-09T21:33:33.813Z,60.73
2023-04-09T21:36:01.591Z,60.57
2023-04-09T21:38:28.412Z,60.69
2023-04-09T21:40:55.468Z,60.88
2023-04-09T21:43:22.229Z,60.88
2023-04-09T21:45:49.199Z,60.36
2023-04-09T21:48:16.200Z,60.96
2023-04-09T21:50:42.962Z,61.45
2023-04-09T21:53:09.800Z,60.98
2023-04-09T21:55:37.206Z,60.91
2023-04-09T21:58:03.994Z,60.74
2023-04-09T22:00:31.358Z,60.13
2023-04-09T22:03:02.148Z,60.18
2023-04-09T22:05:29.740Z,60.46
2023-04-09T22:07:56.497Z,60.78
2023-04-09T22:10:23.487Z,59.68
2023-04-09T22:12:50.658Z,59.72
2023-04-09T22:15:17.562Z,59.63
2023-04-09T22:17:44.471Z,60.39
2023-04-09T22:20:11.424Z,60.51
2023-04-09T22:22:38.579Z,60.50
2023-04-09T22:25:07.080Z,60.63
2023-04-09T22:27:34.196Z,61.47
2023-04-09T22:30:01.033Z,61.02
2023-04-09T22:32:28.887Z,61.41
2023-04-09T22:34:55.690Z,60.63
2023-04-09T22:37:22.407Z,61.27
2023-04-09T22:39:49.268Z,61.92
2023-04-09T22:42:16.187Z,63.24
2023-04-09T22:44:42.880Z,62.34
2023-04-09T22:47:09.556Z,61.97
2023-04-09T22:49:36.517Z,60.68
2023-04-09T22:52:03.310Z,61.83
2023-04-09T22:54:30.170Z,62.76
2023-04-09T22:56:57.872Z,62.05
2023-04-09T22:59:30.475Z,61.46
2023-04-09T23:02:06.050Z,61.64
2023-04-09T23:04:34.190Z,61.74
2023-04-09T23:07:01.106Z,62.50
2023-04-09T23:09:28.035Z,62.30
2023-04-09T23:11:54.790Z,62.20
2023-04-09T23:14:21.563Z,62.33
2023-04-09T23:16:48.123Z,62.42
2023-04-09T23:19:15.010Z,62.68
2023-04-09T23:21:41.724Z,61.62
2023-04-09T23:24:08.846Z,61.49
2023-04-09T23:26:35.635Z,61.03
2023-04-09T23:29:02.413Z,62.16
2023-04-09T23:31:29.154Z,61.32
2023-04-09T23:33:56.270Z,61.72
2023-04-09T23:36:24.355Z,61.50
2023-04-09T23:38:51.447Z,62.77
2023-04-09T23:41:18.146Z,63.65
2023-04-09T23:43:44.860Z,62.99
2023-04-09T23:46:11.494Z,63.16
2023-04-09T23:48:38.262Z,63.07
2023-04-09T23:51:05.285Z,63.26
2023-04-09T23:53:32.082Z,63.49
2023-04-09T23:55:58.798Z,63.20
2023-04-09T23:58:25.546Z,63.54
